createdAt,value
2018-12-01T12:06:55.590Z,1002.41
2018-12-01T12:08:00.934Z,1002.37
2018-12-01T12:09:59.593Z,1002.35
2018-12-01T12:11:05.099Z,1002.32
2018-12-01T12:12:10.565Z,1002.34
2018-12-01T12:13:16.185Z,1002.28
2018-12-01T12:14:21.599Z,1002.29
2018-12-01T12:15:27.094Z,1002.30
2018-12-01T12:16:32.557Z,1002.23
2018-12-01T12:17:38.286Z,1002.22
2018-12-01T12:18:44.491Z,1002.20
2018-12-01T12:19:49.270Z,1002.14
2018-12-01T12:20:55.629Z,1002.16
2018-12-01T12:22:00.327Z,1002.09
2018-12-01T12:23:05.722Z,1002.10
2018-12-01T12:24:11.152Z,1002.14
2018-12-01T12:25:16.740Z,1002.11
2018-12-01T12:26:22.265Z,1002.11
2018-12-01T12:27:28.542Z,1002.10
2018-12-01T12:28:33.374Z,1002.09
2018-12-01T12:29:38.808Z,1002.06
2018-12-01T12:30:44.311Z,1002.10
2018-12-01T12:31:49.813Z,1002.07
2018-12-01T12:32:55.399Z,1002.06
2018-12-01T12:34:00.761Z,1002.10
2018-12-01T12:35:07.939Z,1002.06
2018-12-01T12:36:11.812Z,1002.06
2018-12-01T12:37:17.361Z,1002.00
2018-12-01T12:38:22.858Z,1002.02
2018-12-01T12:39:28.357Z,1001.96
2018-12-01T12:40:33.820Z,1002.02
2018-12-01T12:41:39.492Z,1001.97
2018-12-01T12:42:44.836Z,1001.95
2018-12-01T12:43:50.340Z,1001.95
2018-12-01T12:44:55.899Z,1002.03
2018-12-01T12:46:01.348Z,1001.97
2018-12-01T12:47:06.858Z,1001.95
2018-12-01T12:48:12.386Z,1001.95
2018-12-01T12:49:17.906Z,1001.94
2018-12-01T12:50:23.393Z,1001.92
2018-12-01T12:51:28.917Z,1001.90
2018-12-01T12:52:34.640Z,1001.93
2018-12-01T12:53:40.037Z,1001.89
2018-12-01T12:54:45.513Z,1001.92
2018-12-01T12:55:50.933Z,1001.90
2018-12-01T12:56:56.461Z,1001.89
2018-12-01T12:58:01.963Z,1001.83
2018-12-01T12:59:07.471Z,1001.82
2018-12-01T13:00:12.985Z,1001.81
2018-12-01T13:01:18.498Z,1001.83
2018-12-01T13:02:24.023Z,1001.79
2018-12-01T13:03:29.522Z,1001.80
2018-12-01T13:04:35.013Z,1001.80
2018-12-01T13:07:08.074Z,1001.79
2018-12-01T13:08:13.718Z,1001.76
2018-12-01T13:09:40.665Z,1001.77
2018-12-01T13:10:36.780Z,1001.79
2018-12-01T13:11:48.966Z,1001.73
2018-12-01T13:12:37.630Z,1001.68
2018-12-01T13:13:42.225Z,1001.73
2018-12-01T13:15:03.228Z,1001.69
2018-12-01T13:15:58.321Z,1001.72
2018-12-01T13:17:11.232Z,1001.67
2018-12-01T13:18:13.208Z,1001.69
2018-12-01T13:19:18.723Z,1001.66
2018-12-01T13:20:26.825Z,1001.69
2018-12-01T13:21:18.844Z,1001.67
2018-12-01T13:22:27.663Z,1001.60
2018-12-01T13:23:40.979Z,1001.64
2018-12-01T13:24:32.490Z,1001.57
2018-12-01T13:25:43.149Z,1001.58
2018-12-01T13:26:45.921Z,1001.58
2018-12-01T13:28:00.507Z,1001.59
2018-12-01T13:29:00.788Z,1001.57
2018-12-01T13:30:08.782Z,1001.56
2018-12-01T13:31:20.672Z,1001.56
2018-12-01T13:32:24.574Z,1001.57
2018-12-01T13:33:21.712Z,1001.53
2018-12-01T13:34:30.740Z,1001.51
2018-12-01T13:35:36.801Z,1001.53
2018-12-01T13:36:48.783Z,1001.52
2018-12-01T13:37:49.807Z,1001.51
2018-12-01T13:38:53.810Z,1001.51
2018-12-01T13:40:03.036Z,1001.49
2018-12-01T13:41:08.676Z,1001.51
2018-12-01T13:42:16.676Z,1001.51
2018-12-01T13:43:15.666Z,1001.47
2018-12-01T13:44:24.374Z,1001.52
2018-12-01T13:45:33.707Z,1001.51
2018-12-01T13:46:30.124Z,1001.50
2018-12-01T13:47:43.460Z,1001.51
2018-12-01T13:48:40.693Z,1001.52
2018-12-01T13:49:45.825Z,1001.52
2018-12-01T13:50:52.767Z,1001.49
2018-12-01T13:51:51.682Z,1001.48
2018-12-01T13:53:06.840Z,1001.45
2018-12-01T13:54:15.458Z,1001.40
2018-12-01T13:55:25.697Z,1001.50
2018-12-01T13:56:21.508Z,1001.44
2018-12-01T13:57:33.398Z,1001.41
2018-12-01T13:58:29.104Z,1001.47
2018-12-01T13:59:34.539Z,1001.38
2018-12-01T14:00:54.619Z,1001.42
2018-12-01T14:01:51.561Z,1001.43
2018-12-01T14:02:59.347Z,1001.38
2018-12-01T14:03:57.724Z,1001.36
2018-12-01T14:05:04.285Z,1001.36
2018-12-01T14:06:03.475Z,1001.33
2018-12-01T14:07:16.479Z,1001.36
2018-12-01T14:08:23.042Z,1001.38
2018-12-01T14:09:30.324Z,1001.33
2018-12-01T14:10:38.933Z,1001.33
2018-12-01T14:11:38.325Z,1001.36
2018-12-01T14:12:45.299Z,1001.32
2018-12-01T14:13:51.243Z,1001.28
2018-12-01T14:14:59.546Z,1001.23
2018-12-01T14:16:01.913Z,1001.31
2018-12-01T14:17:01.202Z,1001.22
2018-12-01T14:18:15.340Z,1001.25
2018-12-01T14:19:17.399Z,1001.24
2018-12-01T14:20:24.986Z,1001.25
2018-12-01T14:21:20.399Z,1001.14
2018-12-01T14:22:29.306Z,1001.28
2018-12-01T14:23:44.366Z,1001.22
2018-12-01T14:24:54.414Z,1001.27
2018-12-01T14:25:48.477Z,1001.26
2018-12-01T14:26:51.477Z,1001.25
2018-12-01T14:27:54.744Z,1001.21
2018-12-01T14:28:56.188Z,1001.16
2018-12-01T14:30:12.477Z,1001.21
2018-12-01T14:31:29.286Z,1001.26
2018-12-01T14:32:29.493Z,1001.21
2018-12-01T14:33:29.500Z,1001.18
2018-12-01T14:34:30.121Z,1001.18
2018-12-01T14:35:47.453Z,1001.20
2018-12-01T14:36:46.215Z,1001.20
2018-12-01T14:37:53.289Z,1001.17
2018-12-01T14:38:57.805Z,1001.14
2018-12-01T14:39:57.812Z,1001.17
2018-12-01T14:41:06.116Z,1001.20
2018-12-01T14:42:25.383Z,1001.17
2018-12-01T14:43:10.845Z,1001.18
2018-12-01T14:44:21.979Z,1001.15
2018-12-01T14:45:33.085Z,1001.10
2018-12-01T14:46:35.039Z,1001.07
2018-12-01T14:47:48.052Z,1001.07
2018-12-01T14:48:48.684Z,1001.06
2018-12-01T14:49:56.672Z,1001.10
2018-12-01T14:51:01.906Z,1001.06
2018-12-01T14:52:11.437Z,1001.11
2018-12-01T14:53:07.972Z,1001.06
2018-12-01T14:54:21.484Z,1001.07
2018-12-01T14:55:20.779Z,1001.08
2018-12-01T14:56:20.887Z,1001.08
2018-12-01T14:57:36.668Z,1001.09
2018-12-01T14:58:42.273Z,1001.02
2018-12-01T14:59:36.488Z,1001.01
2018-12-01T15:00:48.679Z,1001.02
2018-12-01T15:01:54.723Z,1001.01
2018-12-01T15:02:57.086Z,1001.01
2018-12-01T15:04:43.567Z,1000.98
2018-12-01T15:05:49.060Z,1000.96
2018-12-01T15:07:47.460Z,1000.89
2018-12-01T15:08:52.953Z,1000.88
2018-12-01T15:10:51.337Z,1000.88
2018-12-01T15:11:56.844Z,1000.93
2018-12-01T15:13:55.249Z,1000.87
2018-12-01T15:15:00.733Z,1000.82
2018-12-01T15:16:59.347Z,1000.83
2018-12-01T15:18:04.836Z,1000.77
2018-12-01T15:19:10.364Z,1000.79
2018-12-01T15:20:15.850Z,1000.76
2018-12-01T15:21:21.358Z,1000.83
2018-12-01T15:22:26.873Z,1000.81
2018-12-01T15:23:32.382Z,1000.77
2018-12-01T15:24:37.907Z,1000.77
2018-12-01T15:25:43.404Z,1000.75
2018-12-01T15:26:48.920Z,1000.72
2018-12-01T15:27:54.418Z,1000.80
2018-12-01T15:28:59.926Z,1000.74
2018-12-01T15:30:05.440Z,1000.75
2018-12-01T15:31:10.953Z,1000.80
2018-12-01T15:32:16.461Z,1000.76
2018-12-01T15:33:21.972Z,1000.77
2018-12-01T15:34:27.502Z,1000.79
2018-12-01T15:35:33.001Z,1000.76
2018-12-01T15:36:38.518Z,1000.77
2018-12-01T15:37:44.015Z,1000.74
2018-12-01T15:38:49.524Z,1000.73
2018-12-01T15:39:55.038Z,1000.79
2018-12-01T15:41:00.545Z,1000.74
2018-12-01T15:42:06.055Z,1000.75
2018-12-01T15:43:11.562Z,1000.77
2018-12-01T15:44:17.081Z,1000.77
2018-12-01T15:45:22.588Z,1000.69
2018-12-01T15:46:28.103Z,1000.66
2018-12-01T15:47:33.610Z,1000.62
2018-12-01T15:48:39.119Z,1000.64
2018-12-01T15:49:44.633Z,1000.59
2018-12-01T15:50:50.145Z,1000.64
2018-12-01T15:51:55.656Z,1000.62
2018-12-01T15:53:01.166Z,1000.64
2018-12-01T15:54:06.668Z,1000.55
2018-12-01T15:55:12.166Z,1000.52
2018-12-01T15:56:17.701Z,1000.58
2018-12-01T15:57:23.214Z,1000.51
2018-12-01T15:58:28.712Z,1000.50
2018-12-01T15:59:34.239Z,1000.45
2018-12-01T16:00:39.736Z,1000.41
2018-12-01T16:01:45.246Z,1000.42
2018-12-01T16:02:50.752Z,1000.38
2018-12-01T16:03:56.263Z,1000.36
2018-12-01T16:05:01.790Z,1000.30
2018-12-01T16:06:07.300Z,1000.38
2018-12-01T16:07:12.793Z,1000.37
2018-12-01T16:08:18.677Z,1000.35
2018-12-01T16:09:23.814Z,1000.36
2018-12-01T16:10:29.360Z,1000.35
2018-12-01T16:11:34.884Z,1000.26
2018-12-01T16:12:40.344Z,1000.26
2018-12-01T16:13:45.854Z,1000.24
2018-12-01T16:14:51.369Z,1000.32
2018-12-01T16:15:56.880Z,1000.32
2018-12-01T16:17:02.392Z,1000.24
2018-12-01T16:18:07.893Z,1000.32
2018-12-01T16:19:13.417Z,1000.23
2018-12-01T16:20:18.924Z,1000.21
2018-12-01T16:21:24.429Z,1000.24
2018-12-01T16:22:29.941Z,1000.31
2018-12-01T16:23:35.461Z,1000.18
2018-12-01T16:24:40.953Z,1000.23
2018-12-01T16:25:46.471Z,1000.21
2018-12-01T16:26:51.988Z,1000.19
2018-12-01T16:27:57.480Z,1000.17
2018-12-01T16:29:03.012Z,1000.14
2018-12-01T16:30:08.504Z,1000.12
2018-12-01T16:31:14.014Z,1000.07
2018-12-01T16:32:19.526Z,1000.09
2018-12-01T16:33:25.043Z,1000.08
2018-12-01T16:34:30.550Z,1000.02
2018-12-01T16:35:36.063Z,1000.02
2018-12-01T16:36:41.575Z,999.99
2018-12-01T16:37:47.080Z,999.97
2018-12-01T16:38:52.586Z,999.92
2018-12-01T16:39:58.098Z,999.94
2018-12-01T16:41:03.606Z,999.95
2018-12-01T16:42:09.129Z,999.96
2018-12-01T16:43:14.620Z,999.97
2018-12-01T16:44:20.140Z,999.97
2018-12-01T16:45:25.647Z,999.99
2018-12-01T16:46:31.164Z,999.98
2018-12-01T16:47:36.665Z,999.95
2018-12-01T16:48:42.176Z,999.99
2018-12-01T16:49:47.686Z,999.85
2018-12-01T16:50:53.197Z,999.91
2018-12-01T16:51:58.705Z,999.92
2018-12-01T16:53:04.217Z,999.94
2018-12-01T16:54:09.734Z,999.89
2018-12-01T16:55:15.234Z,999.91
2018-12-01T16:56:20.753Z,999.96
2018-12-01T16:57:26.257Z,999.92
2018-12-01T16:58:31.777Z,999.93
2018-12-01T16:59:37.276Z,999.98
2018-12-01T17:00:42.808Z,999.90
2018-12-01T17:01:48.296Z,999.94
2018-12-01T17:02:53.809Z,999.88
2018-12-01T17:03:59.326Z,999.93
2018-12-01T17:05:04.829Z,999.95
2018-12-01T17:06:10.343Z,999.93
2018-12-01T17:07:15.846Z,999.88
2018-12-01T17:08:21.362Z,999.91
2018-12-01T17:09:26.868Z,999.87
2018-12-01T17:10:32.381Z,999.81
2018-12-01T17:11:37.889Z,999.76
2018-12-01T17:12:43.398Z,999.72
2018-12-01T17:13:48.916Z,999.78
2018-12-01T17:14:54.416Z,999.73
2018-12-01T17:15:59.927Z,999.70
2018-12-01T17:17:05.438Z,999.70
2018-12-01T17:18:10.946Z,999.68
2018-12-01T17:19:16.473Z,999.65
2018-12-01T17:20:21.968Z,999.67
2018-12-01T17:21:27.479Z,999.55
2018-12-01T17:22:32.985Z,999.54
2018-12-01T17:23:38.511Z,999.51
2018-12-01T17:24:44.004Z,999.53
2018-12-01T17:25:49.515Z,999.49
2018-12-01T17:26:55.029Z,999.50
2018-12-01T17:28:00.538Z,999.45
2018-12-01T17:29:06.045Z,999.43
2018-12-01T17:30:11.563Z,999.44
2018-12-01T17:31:17.065Z,999.37
2018-12-01T17:32:22.583Z,999.37
2018-12-01T17:33:28.098Z,999.37
2018-12-01T17:34:33.596Z,999.34
2018-12-01T17:35:39.105Z,999.35
2018-12-01T17:36:44.620Z,999.35
2018-12-01T17:37:50.127Z,999.32
2018-12-01T17:38:55.638Z,999.23
2018-12-01T17:40:01.146Z,999.21
2018-12-01T17:41:06.654Z,999.25
2018-12-01T17:42:12.162Z,999.15
2018-12-01T17:43:17.679Z,999.15
2018-12-01T17:44:23.180Z,999.15
2018-12-01T17:45:28.694Z,999.05
2018-12-01T17:46:34.216Z,998.98
2018-12-01T17:47:39.715Z,998.97
2018-12-01T17:48:45.216Z,998.97
2018-12-01T17:49:50.732Z,998.92
2018-12-01T17:50:56.238Z,998.90
2018-12-01T17:52:01.750Z,999.02
2018-12-01T17:53:10.315Z,998.81
2018-12-01T17:54:12.770Z,998.88
2018-12-01T17:55:18.278Z,998.82
2018-12-01T17:56:23.797Z,998.75
2018-12-01T17:57:29.300Z,998.73
2018-12-01T17:58:34.804Z,998.78
2018-12-01T17:59:40.331Z,998.64
2018-12-01T18:00:45.832Z,998.64
2018-12-01T18:01:51.341Z,998.62
2018-12-01T18:02:56.846Z,998.59
2018-12-01T18:04:02.361Z,998.60
2018-12-01T18:05:07.869Z,998.53
2018-12-01T18:06:13.377Z,998.52
2018-12-01T18:07:18.893Z,998.43
2018-12-01T18:08:24.401Z,998.41
2018-12-01T18:09:29.906Z,998.45
2018-12-01T18:10:35.416Z,998.41
2018-12-01T18:11:40.926Z,998.33
2018-12-01T18:12:46.432Z,998.34
2018-12-01T18:13:51.943Z,998.30
2018-12-01T18:14:57.471Z,998.35
2018-12-01T18:16:02.969Z,998.32
2018-12-01T18:17:08.475Z,998.28
2018-12-01T18:18:13.988Z,998.21
2018-12-01T18:19:19.497Z,998.21
2018-12-01T18:20:25.006Z,998.22
2018-12-01T18:21:30.515Z,998.18
2018-12-01T18:22:36.030Z,998.15
2018-12-01T18:23:41.522Z,998.23
2018-12-01T18:24:47.052Z,998.20
2018-12-01T18:25:52.555Z,998.17
2018-12-01T18:26:58.064Z,998.11
2018-12-01T18:28:03.570Z,997.99
2018-12-01T18:29:09.080Z,998.01
2018-12-01T18:30:14.599Z,998.02
2018-12-01T18:31:20.105Z,997.96
2018-12-01T18:32:25.620Z,998.08
2018-12-01T18:33:31.119Z,998.01
2018-12-01T18:34:36.631Z,998.02
2018-12-01T18:35:42.135Z,998.00
2018-12-01T18:36:47.648Z,997.97
2018-12-01T18:37:53.158Z,998.06
2018-12-01T18:38:58.673Z,997.98
2018-12-01T18:40:04.176Z,997.95
2018-12-01T18:41:09.687Z,998.01
2018-12-01T18:42:15.196Z,997.88
2018-12-01T18:43:20.704Z,998.00
2018-12-01T18:44:26.220Z,997.92
2018-12-01T18:45:31.726Z,997.87
2018-12-01T18:46:37.232Z,997.93
2018-12-01T18:47:42.746Z,997.89
2018-12-01T18:48:48.262Z,997.83
2018-12-01T18:49:53.762Z,997.91
2018-12-01T18:50:59.275Z,997.82
2018-12-01T18:52:04.785Z,997.79
2018-12-01T18:53:10.296Z,997.76
2018-12-01T18:54:15.806Z,997.72
2018-12-01T18:55:21.330Z,997.72
2018-12-01T18:56:26.820Z,997.67
2018-12-01T18:57:32.331Z,997.73
2018-12-01T18:58:37.852Z,997.87
2018-12-01T18:59:43.355Z,997.77
2018-12-01T19:00:48.854Z,997.68
2018-12-01T19:01:54.378Z,997.63
2018-12-01T19:02:59.887Z,997.64
2018-12-01T19:04:05.394Z,997.67
2018-12-01T19:05:10.904Z,997.67
2018-12-01T19:06:16.414Z,997.59
2018-12-01T19:07:21.914Z,997.48
2018-12-01T19:08:27.433Z,997.52
2018-12-01T19:09:32.934Z,997.43
2018-12-01T19:10:38.458Z,997.42
2018-12-01T19:11:43.961Z,997.42
2018-12-01T19:12:49.465Z,997.42
2018-12-01T19:13:54.981Z,997.34
2018-12-01T19:15:00.488Z,997.33
2018-12-01T19:16:05.996Z,997.38
2018-12-01T19:17:11.512Z,997.30
2018-12-01T19:18:17.024Z,997.32
2018-12-01T19:19:22.525Z,997.25
2018-12-01T19:20:28.025Z,997.26
2018-12-01T19:21:33.551Z,997.26
2018-12-01T19:22:39.052Z,997.25
2018-12-01T19:23:44.567Z,997.13
2018-12-01T19:24:50.071Z,997.12
2018-12-01T19:25:55.580Z,997.10
2018-12-01T19:27:01.100Z,997.03
2018-12-01T19:28:06.609Z,997.04
2018-12-01T19:29:12.113Z,997.06
2018-12-01T19:30:17.618Z,996.93
2018-12-01T19:31:23.131Z,996.93
2018-12-01T19:32:28.647Z,996.86
2018-12-01T19:33:34.158Z,996.83
2018-12-01T19:34:39.658Z,996.75
2018-12-01T19:35:45.168Z,996.78
2018-12-01T19:36:50.670Z,996.73
2018-12-01T19:37:56.189Z,996.84
2018-12-01T19:39:01.694Z,996.78
2018-12-01T19:40:07.201Z,996.73
2018-12-01T19:41:12.723Z,996.68
2018-12-01T19:42:18.224Z,996.68
2018-12-01T19:43:23.742Z,996.72
2018-12-01T19:44:29.243Z,996.76
2018-12-01T19:45:34.757Z,996.70
2018-12-01T19:46:40.263Z,996.75
2018-12-01T19:47:45.764Z,996.81
2018-12-01T19:48:51.282Z,996.69
2018-12-01T19:49:56.794Z,996.68
2018-12-01T19:51:02.296Z,996.65
2018-12-01T19:52:07.806Z,996.71
2018-12-01T19:53:13.321Z,996.70
2018-12-01T19:54:18.824Z,996.79
2018-12-01T19:55:24.336Z,996.71
2018-12-01T19:56:29.845Z,996.68
2018-12-01T19:57:35.353Z,996.70
2018-12-01T19:58:40.870Z,996.75
2018-12-01T19:59:46.376Z,996.62
2018-12-01T20:00:51.884Z,996.70
2018-12-01T20:01:57.409Z,996.72
2018-12-01T20:03:02.915Z,996.63
2018-12-01T20:04:08.413Z,996.55
2018-12-01T20:05:13.930Z,996.48
2018-12-01T20:06:19.429Z,996.57
2018-12-01T20:07:24.958Z,996.48
2018-12-01T20:08:30.448Z,996.48
2018-12-01T20:09:35.968Z,996.44
2018-12-01T20:10:41.465Z,996.46
2018-12-01T20:11:46.976Z,996.57
2018-12-01T20:12:52.485Z,996.49
2018-12-01T20:13:57.997Z,996.53
2018-12-01T20:15:03.514Z,996.43
2018-12-01T20:16:09.011Z,996.48
2018-12-01T20:17:14.525Z,996.40
2018-12-01T20:18:20.139Z,996.37
2018-12-01T20:19:25.556Z,996.42
2018-12-01T20:20:31.062Z,996.45
2018-12-01T20:21:36.564Z,996.36
2018-12-01T20:22:42.078Z,996.43
2018-12-01T20:23:47.587Z,996.39
2018-12-01T20:24:53.098Z,996.48
2018-12-01T20:25:58.609Z,996.42
2018-12-01T20:27:04.111Z,996.36
2018-12-01T20:28:09.622Z,996.39
2018-12-01T20:29:15.125Z,996.39
2018-12-01T20:30:20.641Z,996.38
2018-12-01T20:31:26.150Z,996.41
2018-12-01T20:32:31.656Z,996.41
2018-12-01T20:33:37.172Z,996.31
2018-12-01T20:34:42.691Z,996.37
2018-12-01T20:35:48.184Z,996.33
2018-12-01T20:36:53.694Z,996.37
2018-12-01T20:37:59.215Z,996.41
2018-12-01T20:39:04.719Z,996.37
2018-12-01T20:40:10.222Z,996.39
2018-12-01T20:41:15.745Z,996.30
2018-12-01T20:42:21.235Z,996.21
2018-12-01T20:43:26.745Z,996.27
2018-12-01T20:44:32.258Z,996.32
2018-12-01T20:45:37.769Z,996.21
2018-12-01T20:46:43.280Z,996.14
2018-12-01T20:47:48.790Z,996.18
2018-12-01T20:48:54.294Z,996.23
2018-12-01T20:49:59.817Z,996.20
2018-12-01T20:51:05.334Z,996.09
2018-12-01T20:52:10.830Z,996.23
2018-12-01T20:53:16.338Z,996.34
2018-12-01T20:54:21.849Z,996.17
2018-12-01T20:55:27.356Z,996.20
2018-12-01T20:56:32.865Z,996.07
2018-12-01T20:57:38.378Z,996.09
2018-12-01T20:58:43.886Z,995.96
2018-12-01T20:59:49.399Z,996.12
2018-12-01T21:00:54.897Z,996.04
2018-12-01T21:02:00.414Z,996.14
2018-12-01T21:03:05.925Z,996.07
2018-12-01T21:04:11.433Z,996.09
2018-12-01T21:05:16.937Z,996.11
2018-12-01T21:06:22.444Z,996.08
2018-12-01T21:07:27.956Z,995.98
2018-12-01T21:08:33.464Z,996.08
2018-12-01T21:09:38.975Z,996.14
2018-12-01T21:10:44.486Z,996.17
2018-12-01T21:11:49.998Z,996.12
2018-12-01T21:12:55.501Z,996.11
2018-12-01T21:14:01.024Z,996.13
2018-12-01T21:15:06.520Z,996.09
2018-12-01T21:16:12.038Z,996.03
2018-12-01T21:17:17.540Z,995.99
2018-12-01T21:18:23.047Z,996.03
2018-12-01T21:19:28.558Z,996.04
2018-12-01T21:20:34.069Z,996.02
2018-12-01T21:21:39.576Z,995.97
2018-12-01T21:22:45.087Z,995.96
2018-12-01T21:23:50.593Z,996.03
2018-12-01T21:24:56.106Z,995.99
2018-12-01T21:26:01.671Z,995.95
2018-12-01T21:27:07.133Z,995.96
2018-12-01T21:28:12.630Z,996.02
2018-12-01T21:29:18.142Z,995.92
2018-12-01T21:30:23.652Z,995.91
2018-12-01T21:31:29.171Z,995.90
2018-12-01T21:32:34.666Z,995.91
2018-12-01T21:33:40.171Z,995.92
2018-12-01T21:34:45.692Z,995.93
2018-12-01T21:35:51.203Z,995.90
2018-12-01T21:36:56.701Z,995.86
2018-12-01T21:38:02.221Z,995.91
2018-12-01T21:39:07.726Z,995.88
2018-12-01T21:40:13.237Z,995.81
2018-12-01T21:41:18.752Z,995.87
2018-12-01T21:42:24.251Z,995.72
2018-12-01T21:43:29.778Z,995.82
2018-12-01T21:44:35.281Z,995.77
2018-12-01T21:45:40.786Z,995.80
2018-12-01T21:46:46.292Z,995.66
2018-12-01T21:47:51.803Z,995.69
2018-12-01T21:48:57.313Z,995.70
2018-12-01T21:50:02.821Z,995.65
2018-12-01T21:51:08.338Z,995.69
2018-12-01T21:52:13.842Z,995.62
2018-12-01T21:53:19.363Z,995.63
2018-12-01T21:54:24.860Z,995.63
2018-12-01T21:55:30.369Z,995.60
2018-12-01T21:56:35.871Z,995.61
2018-12-01T21:57:41.396Z,995.62
2018-12-01T21:58:46.904Z,995.52
2018-12-01T21:59:52.407Z,995.57
2018-12-01T22:00:57.921Z,995.60
2018-12-01T22:02:03.427Z,995.56
2018-12-01T22:03:08.936Z,995.58
2018-12-01T22:04:14.449Z,995.52
2018-12-01T22:05:19.960Z,995.54
2018-12-01T22:06:25.477Z,995.57
2018-12-01T22:07:30.974Z,995.52
2018-12-01T22:08:36.483Z,995.51
2018-12-01T22:09:41.996Z,995.52
2018-12-01T22:10:47.503Z,995.53
2018-12-01T22:11:53.016Z,995.65
2018-12-01T22:12:58.518Z,995.52
2018-12-01T22:14:04.040Z,995.55
2018-12-01T22:15:09.542Z,995.53
2018-12-01T22:16:15.053Z,995.51
2018-12-01T22:17:20.561Z,995.58
2018-12-01T22:18:26.075Z,995.55
2018-12-01T22:19:31.586Z,995.57
2018-12-01T22:20:37.106Z,995.59
2018-12-01T22:21:42.601Z,995.60
2018-12-01T22:22:48.123Z,995.62
2018-12-01T22:23:53.615Z,995.64
2018-12-01T22:24:59.151Z,995.60
2018-12-01T22:26:04.644Z,995.66
2018-12-01T22:27:10.157Z,995.64
2018-12-01T22:28:15.658Z,995.56
2018-12-01T22:29:21.186Z,995.62
2018-12-01T22:30:26.676Z,995.57
2018-12-01T22:31:32.193Z,995.53
2018-12-01T22:32:37.696Z,995.58
2018-12-01T22:33:43.216Z,995.56
2018-12-01T22:34:48.712Z,995.59
2018-12-01T22:35:54.220Z,995.59
2018-12-01T22:36:59.740Z,995.60
2018-12-01T22:38:05.247Z,995.51
2018-12-01T22:39:10.755Z,995.56
2018-12-01T22:40:16.265Z,995.52
2018-12-01T22:41:21.763Z,995.53
2018-12-01T22:42:27.288Z,995.54
2018-12-01T22:43:32.778Z,995.52
2018-12-01T22:44:38.310Z,995.46
2018-12-01T22:45:43.814Z,995.48
2018-12-01T22:46:49.323Z,995.45
2018-12-01T22:47:54.834Z,995.49
2018-12-01T22:49:00.356Z,995.50
2018-12-01T22:50:05.846Z,995.48
2018-12-01T22:51:11.363Z,995.52
2018-12-01T22:52:16.870Z,995.42
2018-12-01T22:53:22.384Z,995.41
2018-12-01T22:54:27.883Z,995.36
2018-12-01T22:55:33.391Z,995.33
2018-12-01T22:56:38.909Z,995.38
2018-12-01T22:57:44.433Z,995.29
2018-12-01T22:58:49.923Z,995.33
2018-12-01T22:59:55.434Z,995.30
2018-12-01T23:01:00.952Z,995.24
2018-12-01T23:02:06.460Z,995.34
2018-12-01T23:03:11.974Z,995.35
2018-12-01T23:04:17.463Z,995.31
2018-12-01T23:05:22.994Z,995.34
2018-12-01T23:06:28.499Z,995.26
2018-12-01T23:07:34.007Z,995.25
2018-12-01T23:08:39.510Z,995.28
2018-12-01T23:09:45.029Z,995.29
2018-12-01T23:10:50.533Z,995.27
2018-12-01T23:11:56.774Z,995.24
2018-12-01T23:13:01.551Z,995.28
2018-12-01T23:14:07.058Z,995.22
2018-12-01T23:15:12.575Z,995.25
2018-12-01T23:16:18.084Z,995.23
2018-12-01T23:17:23.594Z,995.22
2018-12-01T23:18:29.099Z,995.24
2018-12-01T23:19:34.607Z,995.27
2018-12-01T23:20:40.121Z,995.23
2018-12-01T23:21:45.625Z,995.25
2018-12-01T23:22:51.147Z,995.28
2018-12-01T23:23:56.697Z,995.24
2018-12-01T23:25:02.159Z,995.25
2018-12-01T23:26:07.670Z,995.22
2018-12-01T23:27:13.350Z,995.21
2018-12-01T23:28:18.804Z,995.19
2018-12-01T23:29:24.212Z,995.18
2018-12-01T23:30:29.709Z,995.14
2018-12-01T23:31:35.223Z,995.17
2018-12-01T23:32:40.729Z,995.19
2018-12-01T23:33:46.237Z,995.15
2018-12-01T23:34:51.745Z,995.08
2018-12-01T23:35:57.798Z,995.10
2018-12-01T23:37:02.822Z,995.06
2018-12-01T23:38:08.270Z,995.03
2018-12-01T23:39:13.798Z,994.99
2018-12-01T23:40:19.293Z,994.91
2018-12-01T23:41:24.806Z,994.96
2018-12-01T23:42:30.328Z,994.99
2018-12-01T23:43:35.830Z,994.99
2018-12-01T23:44:41.336Z,994.99
2018-12-01T23:45:47.439Z,994.96
2018-12-01T23:46:53.310Z,994.92
2018-12-01T23:47:57.871Z,994.89
2018-12-01T23:49:03.379Z,994.90
2018-12-01T23:50:08.887Z,994.89
2018-12-01T23:51:14.396Z,994.84
2018-12-01T23:52:19.909Z,994.84
2018-12-01T23:53:25.711Z,994.79
2018-12-01T23:54:30.925Z,994.75
2018-12-01T23:55:36.452Z,994.72
2018-12-01T23:56:41.943Z,994.71
2018-12-01T23:57:47.543Z,994.75
2018-12-01T23:58:52.969Z,994.68
2018-12-01T23:59:58.594Z,994.66
